Flag for USA

Past Weather in 35°39'20.1"N, 77°20'17.3"W, USA — Yesterday and Last 2 Weeks

Currently: 27 °F. Light snow. Mostly cloudy. (Weather station: Greenville Airport, USA). See more current weather

Past Weather in 35°39'20.1"N, 77°20'17.3"W — Graph

°F

35°39'20.1"N, 77°20'17.3"W Temperature Yesterday

Maximum temperature yesterday: 55 °F (at 10:55 am)
Minimum temperature yesterday: 34 °F (at 10:35 pm)
Average temperature yesterday: 48 °F

High & Low Weather Summary for the Past Weeks

 TemperatureHumidityPressure
High70 °F (Jan 9, 3:35 pm)100% (Jan 9, 9:55 pm)30.67 "Hg (Jan 9, 9:55 pm)
Low21 °F (Jan 12, 4:55 am)20% (Jan 12, 3:15 pm)29.44 "Hg (Jan 16, 5:35 pm)
Average39 °F68%30.15 "Hg
* Reported Jan 6 9:35 pm — Jan 21 9:35 pm, 35°39'20.1"N, 77°20'17.3"W. Weather by CustomWeather, © 2022

Note: Actual official high and low records may vary slightly from our data, if they occured in-between our weather recording intervals... More about our weather records

35°39'20.1"N, 77°20'17.3"W Weather History for the Previous 24 Hours

Scroll right to see more
 ConditionsComfort  
Time TempWeatherWind HumidityBarometerVisibility
9:35 pm
Fri, Jan 21
27 °FLight snow. Mostly cloudy.12 mph100%30.36 "Hg7 mi
9:15 pm27 °FLight snow. Mostly cloudy.9 mph100%30.37 "Hg7 mi
8:35 pm28 °FLight snow. Overcast.12 mph93%30.38 "Hg7 mi
8:15 pm28 °FLight snow. Mostly cloudy.10 mph93%30.37 "Hg7 mi
7:55 pm28 °FLight snow. Mostly cloudy.12 mph93%30.37 "Hg7 mi
7:35 pm28 °FLight snow. Mostly cloudy.12 mph93%30.38 "Hg7 mi
6:55 pm28 °FLight snow. Overcast.13 mph93%30.37 "Hg7 mi
6:35 pm28 °FLight snow. Mostly cloudy.14 mph100%30.37 "Hg7 mi
6:15 pm28 °FLight snow. Overcast.9 mph100%30.37 "Hg7 mi
5:55 pm28 °FLight snow. Mostly cloudy.12 mph100%30.37 "Hg5 mi
5:35 pm28 °FLight snow. Mostly cloudy.10 mph100%30.37 "Hg5 mi
5:15 pm28 °FIce fog.12 mph100%30.38 "Hg5 mi
4:55 pm28 °FLight snow. Overcast.8 mph100%30.37 "Hg5 mi
4:35 pm28 °FLight snow. Overcast.8 mph100%30.37 "Hg5 mi
4:15 pm28 °FIce fog.14 mph100%30.36 "Hg5 mi
3:55 pm28 °FIce fog.13 mph100%30.36 "Hg5 mi
3:35 pm28 °FIce fog.13 mph100%30.36 "Hg3 mi
3:15 pm28 °FIce fog.13 mph100%30.36 "Hg3 mi
2:55 pm28 °FIce fog.10 mph100%30.37 "Hg4 mi
2:35 pm28 °FOvercast.8 mph100%30.36 "Hg7 mi
2:15 pm28 °FOvercast.10 mph93%30.37 "Hg10 mi
1:15 pm30 °FOvercast.14 mph80%30.37 "Hg10 mi
12:55 pm30 °FOvercast.14 mph86%30.37 "Hg10 mi
12:35 pm30 °FOvercast.15 mph80%30.38 "Hg10 mi
12:15 pm30 °FOvercast.14 mph80%30.39 "Hg10 mi
11:35 am30 °FOvercast.16 mph86%30.40 "Hg10 mi
11:15 am30 °FOvercast.No wind86%30.40 "Hg10 mi
10:55 am30 °FPartly sunny.No wind86%30.40 "Hg10 mi
10:35 am30 °FOvercast.No wind86%30.41 "Hg10 mi
10:15 am30 °FMostly cloudy.No wind86%30.41 "Hg10 mi
9:35 am30 °FBroken clouds.No wind80%30.40 "Hg10 mi
9:15 am30 °FBroken clouds.No wind86%30.40 "Hg10 mi
8:55 am30 °FBroken clouds.No wind86%30.40 "Hg10 mi
8:15 am30 °FOvercast.No wind86%30.37 "Hg10 mi
7:55 am30 °FPartly sunny.No wind86%30.36 "Hg10 mi
7:35 am30 °FMostly cloudy.No wind86%30.35 "Hg10 mi
6:55 am30 °FMostly cloudy.No wind86%30.35 "Hg10 mi
6:35 am30 °FPartly cloudy.No wind93%30.33 "Hg10 mi
6:15 am32 °FPartly cloudy.No wind87%30.32 "Hg10 mi
5:55 am32 °FOvercast.No wind93%30.32 "Hg10 mi
5:35 am32 °FLight snow. Mostly cloudy.No wind87%30.32 "Hg10 mi
5:15 am32 °FDrizzle. Mostly cloudy.No wind87%30.31 "Hg10 mi
4:55 am32 °FMostly cloudy.No wind87%30.30 "Hg10 mi
4:35 am32 °FOvercast.No wind100%30.29 "Hg10 mi
4:15 am32 °FDrizzle. Overcast.No wind100%30.29 "Hg10 mi
3:55 am32 °FOvercast.No wind100%30.29 "Hg10 mi
3:35 am32 °FMostly cloudy.No wind100%30.29 "Hg10 mi
3:15 am32 °FOvercast.No wind100%30.29 "Hg10 mi
2:55 am32 °FOvercast.No wind100%30.31 "Hg10 mi
2:35 am32 °FOvercast.No wind100%30.30 "Hg10 mi
2:15 am32 °FLight snow. Overcast.No wind100%30.29 "Hg5 mi
1:55 am32 °FDrizzle. Overcast.No wind100%30.28 "Hg7 mi
1:35 am32 °FRain. Mostly cloudy.10 mph100%30.28 "Hg7 mi
1:15 am32 °FRain. Mostly cloudy.9 mph100%30.27 "Hg7 mi
12:55 am32 °FDrizzle. Overcast.12 mph100%30.27 "Hg10 mi
12:15 am34 °FLight rain. Mostly cloudy.12 mph100%30.28 "Hg5 mi
11:55 pm
Thu, Jan 20
34 °FDrizzle. Mostly cloudy.13 mph100%30.28 "Hg5 mi
11:35 pm34 °FDrizzle. Overcast.12 mph100%30.27 "Hg7 mi
10:55 pm34 °FDrizzle. Overcast.13 mph100%30.27 "Hg5 mi
10:35 pm34 °FDrizzle. Overcast.14 mph100%30.27 "Hg5 mi
Weather by CustomWeather, © 2022

See weather overview